createdAt,value
2019-04-16T00:00:11.851Z,8.83
2019-04-16T00:01:08.208Z,8.87
2019-04-16T00:02:07.201Z,8.86
2019-04-16T00:03:07.222Z,8.86
2019-04-16T00:04:07.197Z,8.87
2019-04-16T00:05:07.171Z,8.86
2019-04-16T00:06:07.168Z,8.81
2019-04-16T00:07:07.158Z,8.79
2019-04-16T00:08:19.437Z,8.81
2019-04-16T00:09:08.132Z,8.79
2019-04-16T00:10:07.130Z,8.77
2019-04-16T00:11:07.127Z,8.84
2019-04-16T00:12:07.109Z,8.94
2019-04-16T00:13:07.105Z,8.96
2019-04-16T00:14:07.252Z,8.84
2019-04-16T00:15:07.063Z,8.91
2019-04-16T00:16:07.057Z,8.92
2019-04-16T00:17:07.087Z,8.80
2019-04-16T00:18:07.037Z,8.91
2019-04-16T00:19:07.025Z,8.95
2019-04-16T00:20:07.253Z,8.89
2019-04-16T00:21:10.065Z,8.79
2019-04-16T00:22:11.544Z,8.81
2019-04-16T00:23:07.997Z,8.83
2019-04-16T00:24:06.996Z,8.83
2019-04-16T00:25:06.959Z,8.80
2019-04-16T00:26:06.956Z,8.91
2019-04-16T00:27:06.936Z,8.76
2019-04-16T00:28:06.926Z,8.79
2019-04-16T00:29:06.956Z,8.87
2019-04-16T00:30:06.898Z,8.76
2019-04-16T00:31:06.892Z,8.83
2019-04-16T00:32:09.274Z,8.96
2019-04-16T00:33:07.564Z,8.87
2019-04-16T00:34:06.876Z,8.87
2019-04-16T00:35:06.891Z,8.94
2019-04-16T00:36:06.843Z,8.81
2019-04-16T00:37:06.846Z,8.84
2019-04-16T00:38:06.816Z,8.84
2019-04-16T00:39:06.817Z,8.83
2019-04-16T00:40:06.803Z,8.80
2019-04-16T00:41:06.796Z,8.83
2019-04-16T00:42:06.771Z,8.96
2019-04-16T00:43:06.764Z,8.95
2019-04-16T00:44:06.767Z,8.96
2019-04-16T00:45:06.762Z,8.98
2019-04-16T00:46:08.655Z,8.94
2019-04-16T00:47:06.730Z,8.95
2019-04-16T00:48:06.705Z,8.94
2019-04-16T00:49:06.700Z,8.86
2019-04-16T00:50:06.701Z,8.74
2019-04-16T00:51:06.706Z,8.74
2019-04-16T00:52:07.340Z,8.71
2019-04-16T00:53:08.328Z,8.71
2019-04-16T00:54:09.685Z,8.66
2019-04-16T00:55:06.641Z,8.58
2019-04-16T00:56:06.642Z,8.50
2019-04-16T00:57:06.673Z,8.52
2019-04-16T00:58:06.629Z,8.34
2019-04-16T00:59:06.595Z,8.36
2019-04-16T01:00:06.581Z,8.25
2019-04-16T01:01:06.591Z,8.20
2019-04-16T01:02:06.643Z,8.11
2019-04-16T01:03:06.566Z,8.07
2019-04-16T01:04:06.722Z,8.01
2019-04-16T01:05:06.621Z,7.92
2019-04-16T01:06:08.098Z,7.85
2019-04-16T01:07:06.561Z,7.82
2019-04-16T01:08:06.513Z,7.79
2019-04-16T01:09:06.494Z,7.74
2019-04-16T01:10:06.482Z,7.67
2019-04-16T01:11:06.468Z,7.77
2019-04-16T01:12:06.460Z,7.79
2019-04-16T01:13:06.436Z,7.67
2019-04-16T01:14:06.428Z,7.63
2019-04-16T01:15:06.430Z,7.63
2019-04-16T01:16:06.417Z,7.67
2019-04-16T01:17:06.403Z,7.55
2019-04-16T01:18:08.078Z,7.55
2019-04-16T01:19:09.506Z,7.46
2019-04-16T01:20:06.397Z,7.43
2019-04-16T01:21:06.552Z,7.39
2019-04-16T01:22:06.630Z,7.32
2019-04-16T01:23:06.332Z,7.25
2019-04-16T01:24:06.329Z,7.23
2019-04-16T01:25:06.312Z,7.31
2019-04-16T01:26:06.315Z,7.39
2019-04-16T01:27:06.327Z,7.39
2019-04-16T01:28:06.285Z,7.57
2019-04-16T01:29:06.272Z,7.55
2019-04-16T01:30:06.825Z,7.52
2019-04-16T01:31:08.146Z,7.52
2019-04-16T01:32:09.849Z,7.34
2019-04-16T01:33:06.232Z,7.40
2019-04-16T01:34:06.223Z,7.40
2019-04-16T01:35:06.212Z,7.32
2019-04-16T01:36:06.205Z,7.43
2019-04-16T01:37:06.193Z,7.48
2019-04-16T01:38:06.246Z,7.52
2019-04-16T01:39:16.006Z,7.61
2019-04-16T01:40:07.169Z,7.60
2019-04-16T01:41:06.149Z,7.53
2019-04-16T01:42:06.149Z,7.60
2019-04-16T01:43:06.136Z,7.50
2019-04-16T01:44:06.204Z,7.58
2019-04-16T01:45:06.152Z,7.49
2019-04-16T01:46:06.190Z,7.49
2019-04-16T01:47:06.256Z,7.53
2019-04-16T01:48:07.856Z,7.58
2019-04-16T01:49:09.814Z,7.60
2019-04-16T01:50:06.060Z,7.68
2019-04-16T01:51:06.078Z,7.71
2019-04-16T01:52:06.017Z,7.80
2019-04-16T01:53:06.055Z,7.86
2019-04-16T01:54:06.003Z,7.97
2019-04-16T01:55:05.995Z,7.98
2019-04-16T01:56:05.981Z,7.90
2019-04-16T01:57:05.975Z,7.92
2019-04-16T01:58:05.982Z,7.98
2019-04-16T01:59:06.360Z,7.93
2019-04-16T02:00:07.814Z,8.02
2019-04-16T02:01:08.045Z,7.98
2019-04-16T02:02:06.944Z,7.87
2019-04-16T02:03:06.052Z,7.98
2019-04-16T02:04:05.913Z,7.90
2019-04-16T02:05:05.884Z,7.93
2019-04-16T02:06:05.882Z,7.85
2019-04-16T02:07:05.872Z,7.72
2019-04-16T02:08:05.864Z,7.67
2019-04-16T02:09:05.855Z,7.53
2019-04-16T02:10:07.328Z,7.61
2019-04-16T02:11:09.791Z,7.63
2019-04-16T02:12:06.824Z,7.60
2019-04-16T02:13:05.815Z,7.52
2019-04-16T02:14:05.800Z,7.52
2019-04-16T02:15:05.834Z,7.43
2019-04-16T02:16:05.761Z,7.46
2019-04-16T02:17:06.039Z,7.42
2019-04-16T02:18:05.746Z,7.43
2019-04-16T02:19:05.747Z,7.40
2019-04-16T02:20:06.914Z,7.37
2019-04-16T02:21:09.579Z,7.40
2019-04-16T02:22:06.707Z,7.42
2019-04-16T02:23:05.693Z,7.40
2019-04-16T02:24:05.689Z,7.40
2019-04-16T02:25:05.710Z,7.24
2019-04-16T02:26:05.664Z,7.27
2019-04-16T02:27:05.739Z,7.20
2019-04-16T02:28:05.639Z,7.23
2019-04-16T02:29:05.629Z,7.21
2019-04-16T02:30:05.933Z,7.17
2019-04-16T02:31:12.878Z,7.17
2019-04-16T02:32:06.616Z,7.21
2019-04-16T02:33:05.600Z,7.15
2019-04-16T02:34:05.581Z,7.06
2019-04-16T02:35:05.563Z,7.07
2019-04-16T02:36:05.555Z,7.10
2019-04-16T02:37:05.570Z,7.40
2019-04-16T02:38:10.419Z,7.46
2019-04-16T02:39:06.518Z,7.64
2019-04-16T02:40:05.532Z,7.63
2019-04-16T02:41:05.732Z,7.64
2019-04-16T02:42:05.488Z,7.64
2019-04-16T02:43:07.387Z,7.64
2019-04-16T02:44:05.475Z,7.55
2019-04-16T02:45:05.471Z,7.60
2019-04-16T02:46:05.458Z,7.53
2019-04-16T02:47:07.509Z,7.52
2019-04-16T02:48:05.453Z,7.50
2019-04-16T02:49:05.449Z,7.40
2019-04-16T02:50:05.406Z,7.42
2019-04-16T02:51:08.087Z,7.31
2019-04-16T02:52:05.397Z,7.28
2019-04-16T02:53:05.380Z,7.20
2019-04-16T02:54:05.389Z,7.15
2019-04-16T02:55:09.161Z,7.13
2019-04-16T02:56:06.373Z,7.13
2019-04-16T02:57:05.339Z,7.06
2019-04-16T02:58:05.511Z,7.03
2019-04-16T02:59:11.837Z,7.02
2019-04-16T03:00:06.297Z,7.07
2019-04-16T03:01:05.341Z,6.92
2019-04-16T03:02:05.510Z,6.94
2019-04-16T03:03:05.266Z,6.88
2019-04-16T03:04:05.256Z,6.84
2019-04-16T03:05:05.277Z,6.87
2019-04-16T03:06:05.232Z,6.79
2019-04-16T03:07:05.219Z,6.81
2019-04-16T03:08:05.949Z,6.80
2019-04-16T03:09:05.371Z,6.85
2019-04-16T03:10:05.190Z,6.69
2019-04-16T03:11:05.221Z,6.84
2019-04-16T03:12:05.175Z,6.89
2019-04-16T03:13:05.194Z,6.87
2019-04-16T03:14:05.142Z,6.88
2019-04-16T03:15:05.136Z,6.77
2019-04-16T03:16:06.237Z,6.70
2019-04-16T03:17:07.024Z,6.69
2019-04-16T03:18:05.103Z,6.77
2019-04-16T03:19:05.084Z,6.77
2019-04-16T03:20:05.077Z,6.79
2019-04-16T03:21:05.069Z,6.70
2019-04-16T03:22:05.077Z,6.76
2019-04-16T03:23:06.078Z,6.81
2019-04-16T03:24:07.982Z,6.81
2019-04-16T03:25:05.047Z,6.77
2019-04-16T03:26:05.021Z,6.81
2019-04-16T03:27:05.544Z,6.89
2019-04-16T03:28:04.998Z,6.92
2019-04-16T03:29:04.990Z,6.91
2019-04-16T03:30:06.024Z,6.98
2019-04-16T03:31:08.657Z,6.98
2019-04-16T03:32:04.949Z,6.89
2019-04-16T03:33:10.438Z,6.79
2019-04-16T03:34:05.928Z,6.81
2019-04-16T03:35:04.918Z,6.77
2019-04-16T03:36:04.943Z,6.71
2019-04-16T03:37:04.926Z,6.61
2019-04-16T03:38:06.218Z,6.62
2019-04-16T03:39:04.882Z,6.64
2019-04-16T03:40:16.100Z,6.49
2019-04-16T03:41:05.869Z,6.59
2019-04-16T03:42:04.851Z,6.51
2019-04-16T03:43:04.882Z,6.46
2019-04-16T03:44:05.160Z,6.38
2019-04-16T03:45:08.060Z,6.41
2019-04-16T03:46:04.794Z,6.34
2019-04-16T03:47:04.819Z,6.46
2019-04-16T03:48:05.150Z,6.48
2019-04-16T03:49:04.788Z,6.49
2019-04-16T03:50:04.778Z,6.36
2019-04-16T03:51:05.103Z,6.38
2019-04-16T03:52:08.209Z,6.28
2019-04-16T03:53:04.753Z,6.34
2019-04-16T03:54:05.109Z,6.22
2019-04-16T03:55:04.714Z,6.22
2019-04-16T03:56:04.770Z,6.17
2019-04-16T03:57:04.865Z,6.17
2019-04-16T03:58:06.185Z,6.14
2019-04-16T03:59:05.029Z,6.15
2019-04-16T04:00:11.122Z,6.09
2019-04-16T04:01:05.656Z,6.27
2019-04-16T04:02:04.632Z,6.19
2019-04-16T04:03:04.631Z,6.14
2019-04-16T04:04:04.604Z,6.14
2019-04-16T04:05:06.885Z,6.15
2019-04-16T04:06:06.896Z,6.08
2019-04-16T04:07:04.618Z,6.18
2019-04-16T04:08:04.579Z,6.19
2019-04-16T04:09:04.566Z,6.25
2019-04-16T04:10:04.561Z,6.22
2019-04-16T04:11:09.212Z,6.30
2019-04-16T04:12:05.798Z,6.27
2019-04-16T04:13:05.003Z,6.25
2019-04-16T04:14:04.500Z,6.33
2019-04-16T04:15:04.495Z,6.25
2019-04-16T04:16:04.489Z,6.27
2019-04-16T04:17:06.658Z,6.19
2019-04-16T04:18:04.457Z,6.34
2019-04-16T04:19:04.466Z,6.40
2019-04-16T04:20:04.465Z,6.38
2019-04-16T04:21:04.438Z,6.34
2019-04-16T04:22:04.417Z,6.40
2019-04-16T04:23:04.413Z,6.36
2019-04-16T04:24:04.408Z,6.34
2019-04-16T04:25:05.238Z,6.38
2019-04-16T04:26:05.525Z,6.30
2019-04-16T04:27:04.369Z,6.40
2019-04-16T04:28:04.364Z,6.38
2019-04-16T04:29:06.177Z,6.40
2019-04-16T04:30:04.418Z,6.43
2019-04-16T04:31:04.381Z,6.30
2019-04-16T04:32:04.455Z,6.25
2019-04-16T04:33:07.678Z,6.19
2019-04-16T04:34:04.356Z,6.15
2019-04-16T04:35:04.307Z,6.15
2019-04-16T04:36:04.271Z,6.15
2019-04-16T04:37:04.266Z,6.19
2019-04-16T04:38:04.995Z,6.11
2019-04-16T04:39:09.003Z,6.25
2019-04-16T04:40:05.248Z,6.25
2019-04-16T04:41:04.225Z,6.31
2019-04-16T04:42:04.212Z,6.40
2019-04-16T04:43:04.217Z,6.33
2019-04-16T04:44:05.231Z,6.36
2019-04-16T04:45:08.466Z,6.33
2019-04-16T04:46:05.200Z,6.51
2019-04-16T04:47:04.153Z,6.40
2019-04-16T04:48:04.153Z,6.44
2019-04-16T04:49:04.131Z,6.44
2019-04-16T04:50:04.374Z,6.43
2019-04-16T04:51:07.993Z,6.46
2019-04-16T04:52:04.118Z,6.59
2019-04-16T04:53:04.136Z,6.51
2019-04-16T04:54:04.086Z,6.64
2019-04-16T04:55:04.071Z,6.66
2019-04-16T04:56:04.063Z,6.69
2019-04-16T04:57:04.055Z,6.61
2019-04-16T04:58:04.047Z,6.66
2019-04-16T04:59:05.265Z,6.80
2019-04-16T05:00:05.606Z,6.87
2019-04-16T05:01:04.017Z,6.88
2019-04-16T05:02:04.029Z,6.98
2019-04-16T05:03:04.015Z,6.92
2019-04-16T05:04:03.971Z,6.97
2019-04-16T05:05:03.966Z,7.05
2019-04-16T05:06:03.970Z,7.17
2019-04-16T05:07:04.862Z,7.13
2019-04-16T05:08:03.967Z,7.13
2019-04-16T05:09:03.919Z,7.13
2019-04-16T05:10:04.566Z,7.24
2019-04-16T05:11:03.902Z,7.23
2019-04-16T05:12:03.915Z,7.23
2019-04-16T05:13:03.880Z,7.30
2019-04-16T05:14:03.889Z,7.35
2019-04-16T05:15:04.066Z,7.32
2019-04-16T05:16:06.887Z,7.40
2019-04-16T05:17:06.422Z,7.40
2019-04-16T05:18:05.828Z,7.45
2019-04-16T05:19:03.823Z,7.46
2019-04-16T05:20:03.848Z,7.46
2019-04-16T05:21:03.791Z,7.43
2019-04-16T05:22:03.795Z,7.50
2019-04-16T05:23:03.792Z,7.53
2019-04-16T05:24:03.771Z,7.60
2019-04-16T05:25:03.756Z,7.53
2019-04-16T05:26:04.701Z,7.50
2019-04-16T05:27:05.429Z,7.67
2019-04-16T05:28:03.716Z,7.61
2019-04-16T05:29:03.732Z,7.72
2019-04-16T05:30:03.692Z,7.83
2019-04-16T05:31:03.714Z,7.93
2019-04-16T05:32:03.691Z,7.97
2019-04-16T05:33:05.644Z,8.01
2019-04-16T05:34:06.044Z,8.05
2019-04-16T05:35:03.654Z,8.00
2019-04-16T05:36:03.639Z,8.19
2019-04-16T05:37:03.623Z,8.08
2019-04-16T05:38:03.612Z,8.20
2019-04-16T05:39:03.839Z,8.26
2019-04-16T05:40:03.592Z,8.34
2019-04-16T05:41:13.204Z,8.45
2019-04-16T05:42:04.572Z,8.53
2019-04-16T05:43:03.560Z,8.47
2019-04-16T05:44:03.553Z,8.58
2019-04-16T05:45:05.535Z,8.65
2019-04-16T05:46:05.511Z,8.66
2019-04-16T05:47:04.521Z,8.71
2019-04-16T05:48:03.511Z,8.86
2019-04-16T05:49:03.486Z,8.92
2019-04-16T05:50:03.498Z,9.11
2019-04-16T05:51:03.640Z,9.14
2019-04-16T05:52:04.146Z,9.29
2019-04-16T05:53:05.471Z,9.46
2019-04-16T05:54:03.447Z,9.56
2019-04-16T05:55:03.539Z,9.81
2019-04-16T05:56:03.450Z,10.41
2019-04-16T05:57:03.413Z,11.47
2019-04-16T05:58:03.395Z,12.54
2019-04-16T05:59:03.463Z,13.60
2019-04-16T06:00:09.389Z,14.42
2019-04-16T06:01:04.369Z,15.19
2019-04-16T06:02:03.452Z,15.92
2019-04-16T06:03:04.945Z,16.27
2019-04-16T06:04:03.417Z,16.82
2019-04-16T06:05:03.355Z,17.34
2019-04-16T06:06:03.308Z,17.84
2019-04-16T06:07:07.442Z,18.11
2019-04-16T06:08:03.284Z,18.15
2019-04-16T06:09:03.297Z,18.26
2019-04-16T06:10:03.266Z,18.44
2019-04-16T06:11:03.266Z,18.69
2019-04-16T06:12:05.876Z,18.75
2019-04-16T06:13:04.247Z,18.87
2019-04-16T06:14:03.228Z,18.91
2019-04-16T06:15:03.245Z,19.43
2019-04-16T06:16:03.217Z,19.44
2019-04-16T06:17:03.201Z,19.21
2019-04-16T06:18:05.393Z,19.23
2019-04-16T06:19:03.167Z,19.76
2019-04-16T06:20:03.223Z,19.06
2019-04-16T06:21:03.163Z,19.16
2019-04-16T06:22:03.150Z,19.56
2019-04-16T06:23:03.137Z,19.47
2019-04-16T06:24:04.135Z,19.94
2019-04-16T06:25:08.480Z,20.38
2019-04-16T06:26:04.125Z,20.72
2019-04-16T06:27:03.112Z,20.48
2019-04-16T06:28:03.094Z,20.03
2019-04-16T06:29:03.072Z,20.43
2019-04-16T06:30:03.054Z,20.57
2019-04-16T06:31:05.678Z,20.73
2019-04-16T06:32:04.098Z,20.95
2019-04-16T06:33:03.055Z,20.87
2019-04-16T06:34:03.014Z,20.39
2019-04-16T06:35:03.003Z,20.29
2019-04-16T06:36:03.000Z,20.32
2019-04-16T06:37:02.997Z,20.62
2019-04-16T06:38:03.044Z,20.67
2019-04-16T06:39:02.970Z,20.92
2019-04-16T06:40:02.950Z,20.76
2019-04-16T06:41:04.049Z,20.95
2019-04-16T06:42:02.961Z,21.38
2019-04-16T06:43:02.994Z,21.86
2019-04-16T06:44:04.178Z,22.05
2019-04-16T06:45:04.857Z,22.43
2019-04-16T06:46:05.520Z,22.35
2019-04-16T06:47:03.922Z,22.54
2019-04-16T06:48:02.896Z,22.30
2019-04-16T06:49:03.108Z,21.44
2019-04-16T06:50:02.883Z,20.47
2019-04-16T06:51:02.835Z,19.78
2019-04-16T06:52:03.526Z,18.87
2019-04-16T06:53:02.839Z,18.33
2019-04-16T06:54:02.829Z,18.00
2019-04-16T06:55:03.588Z,17.66
2019-04-16T06:56:05.620Z,17.52
2019-04-16T06:57:03.781Z,17.59
2019-04-16T06:58:02.780Z,17.43
2019-04-16T06:59:02.766Z,16.94
2019-04-16T07:00:03.176Z,16.82
2019-04-16T07:01:05.894Z,16.38
2019-04-16T07:02:02.715Z,15.93
2019-04-16T07:03:03.087Z,15.67
2019-04-16T07:04:02.699Z,15.94
2019-04-16T07:05:03.482Z,16.34
2019-04-16T07:06:04.026Z,16.82
2019-04-16T07:07:07.824Z,17.16
2019-04-16T07:08:03.675Z,17.11
2019-04-16T07:09:02.649Z,17.30
2019-04-16T07:10:02.697Z,17.55
2019-04-16T07:11:02.659Z,17.72
2019-04-16T07:12:02.611Z,17.28
2019-04-16T07:13:02.615Z,17.21
2019-04-16T07:14:02.615Z,17.21
2019-04-16T07:15:02.580Z,16.91
2019-04-16T07:16:02.564Z,17.48
2019-04-16T07:17:02.557Z,18.27
2019-04-16T07:18:05.378Z,19.08
2019-04-16T07:19:02.575Z,19.87
2019-04-16T07:20:04.654Z,20.51
2019-04-16T07:21:02.534Z,20.50
2019-04-16T07:22:02.517Z,20.38
2019-04-16T07:23:02.576Z,19.87
2019-04-16T07:24:02.493Z,19.48
2019-04-16T07:25:04.405Z,19.91
2019-04-16T07:26:03.736Z,20.01
2019-04-16T07:27:02.549Z,19.87
2019-04-16T07:28:02.460Z,19.69
2019-04-16T07:29:02.601Z,19.55
2019-04-16T07:30:06.801Z,19.61
2019-04-16T07:31:03.482Z,19.40
2019-04-16T07:32:02.420Z,19.40
2019-04-16T07:33:02.403Z,19.41
2019-04-16T07:34:02.460Z,19.43
2019-04-16T07:35:02.367Z,19.31
2019-04-16T07:36:02.353Z,19.25
2019-04-16T07:37:02.385Z,19.25
2019-04-16T07:38:04.950Z,19.50
2019-04-16T07:39:05.077Z,19.31
2019-04-16T07:40:02.320Z,19.37
2019-04-16T07:41:02.313Z,19.92
2019-04-16T07:42:10.710Z,19.96
2019-04-16T07:43:03.489Z,20.35
2019-04-16T07:44:08.056Z,20.54
2019-04-16T07:45:03.276Z,19.96
2019-04-16T07:46:02.258Z,19.47
2019-04-16T07:47:02.267Z,19.47
2019-04-16T07:48:05.640Z,19.56
2019-04-16T07:49:02.277Z,19.14
2019-04-16T07:50:02.534Z,19.59
2019-04-16T07:51:04.837Z,19.56
2019-04-16T07:52:06.995Z,19.55
2019-04-16T07:53:03.205Z,19.73
2019-04-16T07:54:03.183Z,20.35
2019-04-16T07:55:02.262Z,20.61
2019-04-16T07:56:02.149Z,20.82
2019-04-16T07:57:02.177Z,20.58
2019-04-16T07:58:02.147Z,20.76
2019-04-16T07:59:02.177Z,21.17
2019-04-16T08:00:02.127Z,21.71
2019-04-16T08:01:02.135Z,21.32
2019-04-16T08:02:02.439Z,21.21
2019-04-16T08:03:02.091Z,21.21
2019-04-16T08:04:03.195Z,21.43
2019-04-16T08:05:07.774Z,21.77
2019-04-16T08:06:03.050Z,22.17
2019-04-16T08:07:02.069Z,22.55
2019-04-16T08:08:02.023Z,23.51
2019-04-16T08:09:02.013Z,23.33
2019-04-16T08:10:03.254Z,23.48
2019-04-16T08:11:01.998Z,23.73
2019-04-16T08:12:01.989Z,24.42
2019-04-16T08:13:01.989Z,25.15
2019-04-16T08:14:01.966Z,25.45
2019-04-16T08:15:13.916Z,25.99
2019-04-16T08:16:03.113Z,26.60
2019-04-16T08:17:01.935Z,25.94
2019-04-16T08:18:01.920Z,24.91
2019-04-16T08:19:01.956Z,25.09
2019-04-16T08:20:01.910Z,25.15
2019-04-16T08:21:09.453Z,25.83
2019-04-16T08:22:02.919Z,26.65
2019-04-16T08:23:02.047Z,26.55
2019-04-16T08:24:01.894Z,26.09
2019-04-16T08:25:03.567Z,26.67
2019-04-16T08:26:04.285Z,26.65
2019-04-16T08:27:01.831Z,27.65
2019-04-16T08:28:01.836Z,27.70
2019-04-16T08:29:01.805Z,28.27
2019-04-16T08:30:03.385Z,28.78
2019-04-16T08:31:01.789Z,29.39
2019-04-16T08:32:01.835Z,29.55
2019-04-16T08:33:01.762Z,29.60
2019-04-16T08:34:01.778Z,29.68
2019-04-16T08:35:01.945Z,29.76
2019-04-16T08:36:01.743Z,29.27
2019-04-16T08:37:01.733Z,28.71
2019-04-16T08:38:01.835Z,28.36
2019-04-16T08:39:05.899Z,28.25
2019-04-16T08:40:02.702Z,28.29
2019-04-16T08:41:01.698Z,28.77
2019-04-16T08:42:01.897Z,28.67
2019-04-16T08:43:01.694Z,28.70
2019-04-16T08:44:03.833Z,28.12
2019-04-16T08:45:01.677Z,27.75
2019-04-16T08:46:01.653Z,28.44
2019-04-16T08:47:01.634Z,27.84
2019-04-16T08:48:01.624Z,28.22
2019-04-16T08:49:01.627Z,27.70
2019-04-16T08:50:01.720Z,27.06
2019-04-16T08:51:04.329Z,27.34
2019-04-16T08:52:01.584Z,28.30
2019-04-16T08:53:01.746Z,29.34
2019-04-16T08:54:01.564Z,29.83
2019-04-16T08:55:01.559Z,28.80
2019-04-16T08:56:01.598Z,28.24
2019-04-16T08:57:01.621Z,28.04
2019-04-16T08:58:06.099Z,29.14
2019-04-16T08:59:02.519Z,29.68
2019-04-16T09:00:01.642Z,30.38
2019-04-16T09:01:01.500Z,29.70
2019-04-16T09:02:01.512Z,28.11
2019-04-16T09:03:01.555Z,29.52
2019-04-16T09:04:02.938Z,30.57
2019-04-16T09:05:05.951Z,30.94
2019-04-16T09:06:04.291Z,31.43
2019-04-16T09:07:11.437Z,30.99
2019-04-16T09:08:12.174Z,29.78
2019-04-16T09:09:12.904Z,28.92
2019-04-16T09:10:10.147Z,29.39
2019-04-16T09:11:03.425Z,28.51
2019-04-16T09:12:01.401Z,27.66
2019-04-16T09:13:04.021Z,28.11
2019-04-16T09:14:01.394Z,28.86
2019-04-16T09:15:01.371Z,29.51
2019-04-16T09:16:01.369Z,29.39
2019-04-16T09:17:01.430Z,30.37
2019-04-16T09:18:01.351Z,31.04
2019-04-16T09:19:01.345Z,30.61
2019-04-16T09:20:04.851Z,29.73
2019-04-16T09:21:01.475Z,29.67
2019-04-16T09:22:01.304Z,30.39
2019-04-16T09:23:01.299Z,29.49
2019-04-16T09:24:07.029Z,28.52
2019-04-16T09:25:02.284Z,28.51
2019-04-16T09:26:13.519Z,29.58
2019-04-16T09:27:02.306Z,30.15
2019-04-16T09:28:01.901Z,30.80
2019-04-16T09:29:08.435Z,31.13
2019-04-16T09:30:02.506Z,30.19
2019-04-16T09:31:01.264Z,28.86
2019-04-16T09:32:01.215Z,28.22
2019-04-16T09:33:02.391Z,27.84
2019-04-16T09:34:05.314Z,28.09
2019-04-16T09:35:10.168Z,28.43
2019-04-16T09:36:02.190Z,28.83
2019-04-16T09:37:01.168Z,28.49
2019-04-16T09:38:01.205Z,28.18
2019-04-16T09:39:01.147Z,29.14
2019-04-16T09:40:01.162Z,30.15
2019-04-16T09:41:01.146Z,31.06
2019-04-16T09:42:01.136Z,31.46
2019-04-16T09:43:01.099Z,30.39
2019-04-16T09:44:01.130Z,30.75
2019-04-16T09:45:01.742Z,31.28
2019-04-16T09:46:10.102Z,31.34
2019-04-16T09:47:05.073Z,31.57
2019-04-16T09:48:02.447Z,31.36
2019-04-16T09:49:04.963Z,31.48
2019-04-16T09:50:01.039Z,30.97
2019-04-16T09:51:01.081Z,30.49
2019-04-16T09:52:03.804Z,30.23
2019-04-16T09:53:01.997Z,29.80
2019-04-16T09:54:01.003Z,29.43
2019-04-16T09:55:01.080Z,29.33
2019-04-16T09:56:00.986Z,29.74
2019-04-16T09:57:00.974Z,29.74
2019-04-16T09:58:05.998Z,29.02
2019-04-16T09:59:01.973Z,29.64
2019-04-16T10:00:00.943Z,29.90
2019-04-16T10:01:00.960Z,29.18
2019-04-16T10:02:00.934Z,29.12
2019-04-16T10:03:00.935Z,28.36
2019-04-16T10:04:00.901Z,28.41
2019-04-16T10:05:00.893Z,28.48
2019-04-16T10:06:00.904Z,27.60
2019-04-16T10:07:00.888Z,28.43
2019-04-16T10:08:00.887Z,28.89
2019-04-16T10:09:00.893Z,29.57
2019-04-16T10:10:00.840Z,28.62
2019-04-16T10:11:04.116Z,28.96
2019-04-16T10:12:04.954Z,28.88
2019-04-16T10:13:01.887Z,28.33
2019-04-16T10:14:00.845Z,27.99
2019-04-16T10:15:00.816Z,27.32
2019-04-16T10:16:00.890Z,27.40
2019-04-16T10:17:00.785Z,26.73
2019-04-16T10:18:01.505Z,26.32
2019-04-16T10:19:00.787Z,26.18
2019-04-16T10:20:00.810Z,25.80
2019-04-16T10:21:00.737Z,25.45
2019-04-16T10:22:00.728Z,25.27
2019-04-16T10:23:00.730Z,24.80
2019-04-16T10:24:00.768Z,24.93
2019-04-16T10:25:00.703Z,25.03
2019-04-16T10:26:00.710Z,25.27
2019-04-16T10:27:04.021Z,25.69
2019-04-16T10:28:01.863Z,26.50
2019-04-16T10:29:00.671Z,27.03
2019-04-16T10:30:00.679Z,27.00
2019-04-16T10:31:00.644Z,26.50
2019-04-16T10:32:00.734Z,25.73
2019-04-16T10:33:00.643Z,24.95
2019-04-16T10:34:00.631Z,25.54
2019-04-16T10:35:00.592Z,25.50
2019-04-16T10:36:01.086Z,25.54
2019-04-16T10:37:00.601Z,25.57
2019-04-16T10:38:00.566Z,25.94
2019-04-16T10:39:00.627Z,26.05
2019-04-16T10:40:00.557Z,24.84
2019-04-16T10:41:00.571Z,23.79
2019-04-16T10:42:00.566Z,23.47
2019-04-16T10:43:00.521Z,23.20
2019-04-16T10:44:00.523Z,22.68
2019-04-16T10:45:00.515Z,22.49
2019-04-16T10:46:00.504Z,21.83
2019-04-16T10:47:00.500Z,21.54
2019-04-16T10:48:00.465Z,21.16
2019-04-16T10:49:00.477Z,20.84
2019-04-16T10:50:00.453Z,20.54
2019-04-16T10:51:00.438Z,20.48
2019-04-16T10:52:00.432Z,20.54
2019-04-16T10:53:00.508Z,20.74
2019-04-16T10:54:00.412Z,20.29
2019-04-16T10:55:00.421Z,19.88
2019-04-16T10:56:00.387Z,19.62
2019-04-16T10:57:00.413Z,19.54
2019-04-16T10:58:00.404Z,19.43
2019-04-16T10:59:00.375Z,19.43
2019-04-16T11:00:00.383Z,19.26
2019-04-16T11:01:00.329Z,19.41
2019-04-16T11:02:00.359Z,19.36
2019-04-16T11:03:00.327Z,19.10
2019-04-16T11:04:00.320Z,19.08
2019-04-16T11:05:02.172Z,19.39
2019-04-16T11:06:00.301Z,19.43
2019-04-16T11:07:00.302Z,19.40
2019-04-16T11:08:00.253Z,19.39
2019-04-16T11:09:00.253Z,19.44
2019-04-16T11:10:00.251Z,19.63
2019-04-16T11:11:00.266Z,19.58
2019-04-16T11:12:04.816Z,19.44
2019-04-16T11:13:01.220Z,19.56
2019-04-16T11:14:00.677Z,19.71
2019-04-16T11:15:00.180Z,19.58
2019-04-16T11:16:00.180Z,19.61
2019-04-16T11:17:00.199Z,19.56
2019-04-16T11:18:00.207Z,19.62
2019-04-16T11:19:00.161Z,19.56
2019-04-16T11:20:00.404Z,19.56
2019-04-16T11:21:00.389Z,19.46
2019-04-16T11:22:04.148Z,19.43
2019-04-16T11:23:01.173Z,19.21
2019-04-16T11:24:00.090Z,19.21
2019-04-16T11:25:00.170Z,19.23
2019-04-16T11:26:00.062Z,19.23
2019-04-16T11:27:00.043Z,19.43
2019-04-16T11:28:00.135Z,19.61
2019-04-16T11:29:00.099Z,19.80
2019-04-16T11:30:00.019Z,19.66
2019-04-16T11:31:00.007Z,19.28
2019-04-16T11:31:59.998Z,19.40
2019-04-16T11:33:00.021Z,19.46
2019-04-16T11:34:00.013Z,19.39
2019-04-16T11:34:59.985Z,19.29
2019-04-16T11:35:59.955Z,19.29
2019-04-16T11:37:00.034Z,19.31
2019-04-16T11:37:59.932Z,18.94
2019-04-16T11:38:59.929Z,18.75
2019-04-16T11:39:59.967Z,18.72
2019-04-16T11:40:59.955Z,18.82
2019-04-16T11:41:59.927Z,18.82
2019-04-16T11:42:59.876Z,18.69
2019-04-16T11:44:14.147Z,18.81
2019-04-16T11:45:00.887Z,18.88
2019-04-16T11:45:59.889Z,18.80
2019-04-16T11:46:59.877Z,18.84
2019-04-16T11:47:59.821Z,18.91
2019-04-16T11:48:59.834Z,19.00
2019-04-16T11:49:59.809Z,18.75
2019-04-16T11:50:59.967Z,18.72
2019-04-16T11:51:59.781Z,18.76
2019-04-16T11:52:59.802Z,18.85
2019-04-16T11:53:59.766Z,18.82
2019-04-16T11:55:00.875Z,18.90
2019-04-16T11:55:59.748Z,18.99
2019-04-16T11:57:00.251Z,19.11
2019-04-16T11:57:59.776Z,19.28
2019-04-16T11:58:59.829Z,19.31
2019-04-16T12:00:07.491Z,19.39
2019-04-16T12:01:01.595Z,19.43
2019-04-16T12:01:59.672Z,19.31
2019-04-16T12:02:59.665Z,19.07
2019-04-16T12:03:59.685Z,18.73
2019-04-16T12:04:59.709Z,18.66
2019-04-16T12:05:59.662Z,18.66
2019-04-16T12:06:59.620Z,18.94
2019-04-16T12:07:59.605Z,18.85
2019-04-16T12:08:59.610Z,18.98
2019-04-16T12:09:59.620Z,19.10
2019-04-16T12:10:59.636Z,19.13
2019-04-16T12:11:59.568Z,19.13
2019-04-16T12:13:03.269Z,19.19
2019-04-16T12:13:59.599Z,19.23
2019-04-16T12:14:59.540Z,19.16
2019-04-16T12:15:59.536Z,19.02
2019-04-16T12:16:59.507Z,18.99
2019-04-16T12:17:59.502Z,19.14
2019-04-16T12:18:59.495Z,19.04
2019-04-16T12:19:59.502Z,19.11
2019-04-16T12:20:59.517Z,19.04
2019-04-16T12:21:59.505Z,19.13
2019-04-16T12:22:59.439Z,19.08
2019-04-16T12:23:59.546Z,18.91
2019-04-16T12:24:59.438Z,18.85
2019-04-16T12:25:59.431Z,19.02
2019-04-16T12:26:59.406Z,19.08
2019-04-16T12:28:01.866Z,19.26
2019-04-16T12:29:00.428Z,19.33
2019-04-16T12:29:59.370Z,19.25
2019-04-16T12:30:59.397Z,19.32
2019-04-16T12:32:03.566Z,19.43
2019-04-16T12:33:00.337Z,19.37
2019-04-16T12:33:59.404Z,19.28
2019-04-16T12:34:59.387Z,19.39
2019-04-16T12:35:59.309Z,19.08
2019-04-16T12:36:59.302Z,19.23
2019-04-16T12:37:59.289Z,19.36
2019-04-16T12:38:59.271Z,19.33
2019-04-16T12:39:59.315Z,19.44
2019-04-16T12:40:59.295Z,19.48
2019-04-16T12:42:00.205Z,19.44
2019-04-16T12:42:59.227Z,19.56
2019-04-16T12:43:59.325Z,19.55
2019-04-16T12:44:59.264Z,19.47
2019-04-16T12:45:59.258Z,19.59
2019-04-16T12:46:59.195Z,19.59
2019-04-16T12:47:59.284Z,19.77
2019-04-16T12:48:59.204Z,19.73
2019-04-16T12:49:59.227Z,19.59
2019-04-16T12:50:59.202Z,19.68
2019-04-16T12:51:59.184Z,19.59
2019-04-16T12:52:59.132Z,19.66
2019-04-16T12:53:59.132Z,19.76
2019-04-16T12:54:59.708Z,19.84
2019-04-16T12:56:05.935Z,19.74
2019-04-16T12:57:00.203Z,19.68
2019-04-16T12:57:59.134Z,19.73
2019-04-16T12:58:59.065Z,19.87
2019-04-16T12:59:59.060Z,20.11
2019-04-16T13:00:59.808Z,20.21
2019-04-16T13:01:59.026Z,20.16
2019-04-16T13:02:59.009Z,20.05
2019-04-16T13:03:59.041Z,20.06